createdAt,value
2019-05-07T00:00:29.013Z,0
2019-05-07T00:01:28.991Z,0
2019-05-07T00:02:29.035Z,0
2019-05-07T00:03:29.029Z,0
2019-05-07T00:04:29.022Z,0
2019-05-07T00:05:28.994Z,0
2019-05-07T00:06:29.106Z,0
2019-05-07T00:07:29.099Z,0
2019-05-07T00:08:29.101Z,0
2019-05-07T00:09:29.055Z,0
2019-05-07T00:10:29.029Z,0
2019-05-07T00:11:29.049Z,0
2019-05-07T00:12:29.034Z,0
2019-05-07T00:13:29.102Z,0
2019-05-07T00:14:29.031Z,0
2019-05-07T00:15:29.104Z,0
2019-05-07T00:16:29.044Z,0
2019-05-07T00:17:29.040Z,0
2019-05-07T00:18:29.102Z,0
2019-05-07T00:19:29.104Z,0
2019-05-07T00:20:29.035Z,0
2019-05-07T00:21:29.111Z,0
2019-05-07T00:22:29.096Z,0
2019-05-07T00:23:29.142Z,0
2019-05-07T00:24:29.143Z,0
2019-05-07T00:25:29.031Z,0
2019-05-07T00:26:29.145Z,0
2019-05-07T00:27:29.054Z,0
2019-05-07T00:28:29.021Z,0
2019-05-07T00:29:29.086Z,0
2019-05-07T00:30:29.131Z,0
2019-05-07T00:31:29.112Z,0
2019-05-07T00:32:29.128Z,0
2019-05-07T00:33:29.079Z,0
2019-05-07T00:34:29.133Z,0
2019-05-07T00:35:29.078Z,0
2019-05-07T00:36:29.132Z,0
2019-05-07T00:37:29.076Z,0
2019-05-07T00:38:29.140Z,0
2019-05-07T00:39:29.065Z,0
2019-05-07T00:40:29.148Z,0
2019-05-07T00:41:29.094Z,0
2019-05-07T00:42:29.041Z,0
2019-05-07T00:43:29.099Z,0
2019-05-07T00:44:29.019Z,0
2019-05-07T00:45:29.105Z,0
2019-05-07T00:46:29.074Z,0
2019-05-07T00:47:29.121Z,0
2019-05-07T00:48:29.108Z,0
2019-05-07T00:49:29.017Z,0
2019-05-07T00:50:28.997Z,0
2019-05-07T00:51:29.031Z,0
2019-05-07T00:52:29.099Z,0
2019-05-07T00:53:29.092Z,0
2019-05-07T00:54:29.153Z,0
2019-05-07T00:55:29.085Z,0
2019-05-07T00:56:29.102Z,0
2019-05-07T00:57:29.103Z,0
2019-05-07T00:58:29.176Z,0
2019-05-07T00:59:29.150Z,0
2019-05-07T01:00:29.101Z,0
2019-05-07T01:01:29.149Z,0
2019-05-07T01:02:29.133Z,0
2019-05-07T01:03:29.140Z,0
2019-05-07T01:04:29.144Z,0
2019-05-07T01:05:29.144Z,0
2019-05-07T01:06:29.076Z,0
2019-05-07T01:07:29.072Z,0
2019-05-07T01:08:29.070Z,0
2019-05-07T01:09:29.148Z,0
2019-05-07T01:10:29.140Z,0
2019-05-07T01:11:29.111Z,0
2019-05-07T01:12:29.183Z,0
2019-05-07T01:13:29.167Z,0
2019-05-07T01:14:29.110Z,0
2019-05-07T01:15:32.126Z,0
2019-05-07T01:16:29.118Z,0
2019-05-07T01:17:29.111Z,0
2019-05-07T01:18:29.044Z,0
2019-05-07T01:19:29.173Z,0
2019-05-07T01:20:29.133Z,0
2019-05-07T01:21:29.169Z,0
2019-05-07T01:22:29.092Z,0
2019-05-07T01:23:29.149Z,0
2019-05-07T01:24:29.153Z,0
2019-05-07T01:25:29.095Z,0
2019-05-07T01:26:29.089Z,0
2019-05-07T01:27:29.187Z,0
2019-05-07T01:28:29.150Z,0
2019-05-07T01:29:29.088Z,0
2019-05-07T01:30:29.153Z,0
2019-05-07T01:31:29.162Z,0
2019-05-07T01:32:29.104Z,0
2019-05-07T01:33:29.090Z,0
2019-05-07T01:34:29.158Z,0
2019-05-07T01:35:29.066Z,0
2019-05-07T01:36:29.153Z,0
2019-05-07T01:37:29.152Z,0
2019-05-07T01:38:29.050Z,0
2019-05-07T01:39:29.158Z,0
2019-05-07T01:40:29.090Z,0
2019-05-07T01:41:29.067Z,0
2019-05-07T01:42:29.126Z,0
2019-05-07T01:43:29.075Z,0
2019-05-07T01:44:29.163Z,0
2019-05-07T01:45:43.282Z,0
2019-05-07T01:46:29.207Z,0
2019-05-07T01:47:29.126Z,0
2019-05-07T01:48:29.171Z,0
2019-05-07T01:49:29.147Z,0
2019-05-07T01:50:29.070Z,0
2019-05-07T01:51:29.207Z,0
2019-05-07T01:52:29.211Z,0
2019-05-07T01:53:29.141Z,0
2019-05-07T01:54:29.201Z,0
2019-05-07T01:55:29.112Z,0
2019-05-07T01:56:29.241Z,0
2019-05-07T01:57:29.081Z,0
2019-05-07T01:58:29.148Z,0
2019-05-07T01:59:29.219Z,0
2019-05-07T02:00:29.088Z,0
2019-05-07T02:01:29.073Z,0
2019-05-07T02:02:29.118Z,0
2019-05-07T02:03:29.201Z,0
2019-05-07T02:04:29.163Z,0
2019-05-07T02:05:29.184Z,0
2019-05-07T02:06:29.189Z,0
2019-05-07T02:07:29.147Z,0
2019-05-07T02:08:29.187Z,0
2019-05-07T02:09:29.072Z,0
2019-05-07T02:10:29.121Z,0
2019-05-07T02:11:29.149Z,0
2019-05-07T02:12:29.210Z,0
2019-05-07T02:13:29.152Z,0
2019-05-07T02:14:29.140Z,0
2019-05-07T02:15:29.094Z,0
2019-05-07T02:16:29.075Z,0
2019-05-07T02:17:29.185Z,0
2019-05-07T02:18:29.239Z,0
2019-05-07T02:19:29.132Z,0
2019-05-07T02:20:29.177Z,0
2019-05-07T02:21:29.129Z,0
2019-05-07T02:22:29.176Z,0
2019-05-07T02:23:29.232Z,0
2019-05-07T02:24:29.165Z,0
2019-05-07T02:25:29.254Z,0
2019-05-07T02:26:29.167Z,0
2019-05-07T02:27:29.216Z,0
2019-05-07T02:28:29.234Z,0
2019-05-07T02:29:29.225Z,0
2019-05-07T02:30:29.168Z,0
2019-05-07T02:31:29.105Z,0
2019-05-07T02:32:29.220Z,0
2019-05-07T02:33:29.158Z,0
2019-05-07T02:34:29.172Z,0
2019-05-07T02:35:29.162Z,0
2019-05-07T02:36:29.189Z,0
2019-05-07T02:37:37.708Z,0
2019-05-07T02:38:29.247Z,0
2019-05-07T02:39:29.225Z,0
2019-05-07T02:40:29.239Z,0
2019-05-07T02:41:29.159Z,0
2019-05-07T02:42:29.237Z,0
2019-05-07T02:43:29.163Z,0
2019-05-07T02:44:29.172Z,0
2019-05-07T02:45:29.173Z,0
2019-05-07T02:46:31.884Z,0
2019-05-07T02:47:29.182Z,0
2019-05-07T02:48:29.190Z,0
2019-05-07T02:49:29.126Z,0
2019-05-07T02:50:29.178Z,0
2019-05-07T02:51:29.252Z,0
2019-05-07T02:52:29.202Z,0
2019-05-07T02:53:29.208Z,0
2019-05-07T02:54:29.107Z,0
2019-05-07T02:55:29.116Z,0
2019-05-07T02:56:29.148Z,0
2019-05-07T02:57:29.209Z,0
2019-05-07T02:58:29.103Z,0
2019-05-07T02:59:29.171Z,0
2019-05-07T03:00:29.133Z,0
2019-05-07T03:01:29.212Z,0
2019-05-07T03:02:29.105Z,0
2019-05-07T03:03:29.102Z,0
2019-05-07T03:04:29.213Z,0
2019-05-07T03:05:29.177Z,0
2019-05-07T03:06:29.167Z,0
2019-05-07T03:07:29.127Z,0
2019-05-07T03:08:29.131Z,0
2019-05-07T03:09:29.111Z,0
2019-05-07T03:10:29.222Z,0
2019-05-07T03:11:29.223Z,0
2019-05-07T03:12:29.169Z,0
2019-05-07T03:13:29.161Z,0
2019-05-07T03:14:29.233Z,0
2019-05-07T03:15:29.167Z,0
2019-05-07T03:16:40.088Z,0
2019-05-07T03:17:29.161Z,0
2019-05-07T03:18:29.175Z,0
2019-05-07T03:19:29.163Z,0
2019-05-07T03:20:29.172Z,0
2019-05-07T03:21:29.240Z,0
2019-05-07T03:22:29.272Z,0
2019-05-07T03:23:29.172Z,0
2019-05-07T03:24:29.238Z,0
2019-05-07T03:25:29.170Z,0
2019-05-07T03:26:29.270Z,0
2019-05-07T03:27:29.247Z,0
2019-05-07T03:28:29.186Z,0
2019-05-07T03:29:29.188Z,0
2019-05-07T03:30:29.268Z,0
2019-05-07T03:31:29.245Z,0
2019-05-07T03:32:29.259Z,0
2019-05-07T03:33:29.250Z,0
2019-05-07T03:34:29.326Z,0
2019-05-07T03:35:29.419Z,0
2019-05-07T03:36:29.314Z,0
2019-05-07T03:37:33.186Z,0
2019-05-07T03:38:29.177Z,0
2019-05-07T03:39:29.249Z,0
2019-05-07T03:40:29.180Z,0
2019-05-07T03:41:29.255Z,0
2019-05-07T03:42:29.289Z,0
2019-05-07T03:43:29.279Z,0
2019-05-07T03:44:29.271Z,0
2019-05-07T03:45:29.277Z,0
2019-05-07T03:46:29.193Z,0
2019-05-07T03:47:29.227Z,0
2019-05-07T03:48:29.216Z,0
2019-05-07T03:49:29.214Z,0
2019-05-07T03:50:29.281Z,0
2019-05-07T03:51:29.287Z,0
2019-05-07T03:52:29.167Z,0
2019-05-07T03:53:29.123Z,0
2019-05-07T03:54:29.116Z,0
2019-05-07T03:55:29.192Z,0
2019-05-07T03:56:29.169Z,0
2019-05-07T03:57:29.125Z,0
2019-05-07T03:58:29.160Z,0
2019-05-07T03:59:29.144Z,0
2019-05-07T04:00:29.215Z,0
2019-05-07T04:01:29.213Z,0
2019-05-07T04:02:29.311Z,0
2019-05-07T04:03:29.292Z,0
2019-05-07T04:04:29.225Z,0
2019-05-07T04:05:29.228Z,0
2019-05-07T04:06:29.233Z,0
2019-05-07T04:07:29.235Z,0
2019-05-07T04:08:29.289Z,0
2019-05-07T04:09:29.270Z,0
2019-05-07T04:10:29.334Z,0
2019-05-07T04:11:29.231Z,0
2019-05-07T04:12:29.212Z,0
2019-05-07T04:13:29.259Z,0
2019-05-07T04:14:29.139Z,0
2019-05-07T04:15:29.254Z,0
2019-05-07T04:16:29.179Z,14
2019-05-07T04:17:29.180Z,16
2019-05-07T04:18:29.209Z,21
2019-05-07T04:19:29.239Z,22
2019-05-07T04:20:29.218Z,21
2019-05-07T04:21:29.152Z,21
2019-05-07T04:22:29.316Z,18
2019-05-07T04:23:29.239Z,20
2019-05-07T04:24:29.171Z,21
2019-05-07T04:25:29.281Z,29
2019-05-07T04:26:29.286Z,35
2019-05-07T04:27:29.284Z,35
2019-05-07T04:28:29.226Z,35
2019-05-07T04:29:29.295Z,36
2019-05-07T04:30:29.215Z,32
2019-05-07T04:31:29.291Z,35
2019-05-07T04:32:29.222Z,41
2019-05-07T04:33:29.295Z,42
2019-05-07T04:34:29.220Z,44
2019-05-07T04:35:29.312Z,44
2019-05-07T04:36:29.217Z,49
2019-05-07T04:37:29.374Z,52
2019-05-07T04:38:29.305Z,57
2019-05-07T04:39:29.224Z,58
2019-05-07T04:40:29.305Z,58
2019-05-07T04:41:29.218Z,58
2019-05-07T04:42:29.313Z,54
2019-05-07T04:43:29.278Z,55
2019-05-07T04:44:29.243Z,57
2019-05-07T04:45:29.274Z,63
2019-05-07T04:46:29.311Z,67
2019-05-07T04:47:38.743Z,68
2019-05-07T04:48:29.262Z,69
2019-05-07T04:49:29.274Z,68
2019-05-07T04:50:41.987Z,69
2019-05-07T04:51:29.244Z,73
2019-05-07T04:52:29.321Z,76
2019-05-07T04:53:29.326Z,75
2019-05-07T04:54:29.281Z,76
2019-05-07T04:55:29.332Z,78
2019-05-07T04:56:29.319Z,81
2019-05-07T04:57:29.248Z,88
2019-05-07T04:58:29.208Z,95
2019-05-07T04:59:29.262Z,102
2019-05-07T05:00:29.326Z,106
2019-05-07T05:01:29.251Z,116
2019-05-07T05:02:29.218Z,128
2019-05-07T05:03:29.253Z,137
2019-05-07T05:04:31.573Z,141
2019-05-07T05:05:29.309Z,149
2019-05-07T05:06:29.217Z,157
2019-05-07T05:07:29.313Z,161
2019-05-07T05:08:29.314Z,162
2019-05-07T05:09:29.222Z,160
2019-05-07T05:10:29.331Z,160
2019-05-07T05:11:29.285Z,144
2019-05-07T05:12:29.209Z,152
2019-05-07T05:13:29.261Z,147
2019-05-07T05:14:29.337Z,133
2019-05-07T05:15:29.272Z,127
2019-05-07T05:16:29.240Z,111
2019-05-07T05:17:29.332Z,101
2019-05-07T05:18:29.334Z,89
2019-05-07T05:19:29.262Z,94
2019-05-07T05:20:29.346Z,101
2019-05-07T05:21:29.267Z,101
2019-05-07T05:22:29.262Z,99
2019-05-07T05:23:29.331Z,97
2019-05-07T05:24:29.265Z,99
2019-05-07T05:25:29.263Z,104
2019-05-07T05:26:29.340Z,113
2019-05-07T05:27:30.635Z,124
2019-05-07T05:28:29.268Z,137
2019-05-07T05:29:29.340Z,139
2019-05-07T05:30:29.340Z,151
2019-05-07T05:31:29.275Z,151
2019-05-07T05:32:29.350Z,145
2019-05-07T05:33:29.272Z,133
2019-05-07T05:34:29.274Z,131
2019-05-07T05:35:29.340Z,130
2019-05-07T05:36:29.334Z,131
2019-05-07T05:37:29.272Z,118
2019-05-07T05:38:29.349Z,112
2019-05-07T05:39:29.349Z,105
2019-05-07T05:40:29.278Z,102
2019-05-07T05:42:29.355Z,100
2019-05-07T05:43:31.783Z,101
2019-05-07T05:44:29.357Z,106
2019-05-07T05:45:29.289Z,109
2019-05-07T05:46:29.411Z,114
2019-05-07T05:47:29.355Z,123
2019-05-07T05:48:29.284Z,126
2019-05-07T05:49:29.360Z,134
2019-05-07T05:50:29.381Z,122
2019-05-07T05:51:29.255Z,138
2019-05-07T05:52:29.358Z,145
2019-05-07T05:53:29.366Z,158
2019-05-07T05:54:29.291Z,173
2019-05-07T05:55:29.287Z,180
2019-05-07T05:56:29.360Z,194
2019-05-07T05:57:29.295Z,207
2019-05-07T05:58:29.296Z,199
2019-05-07T05:59:45.000Z,192
2019-05-07T06:00:29.462Z,185
2019-05-07T06:01:29.292Z,183
2019-05-07T06:02:29.353Z,174
2019-05-07T06:03:29.275Z,189
2019-05-07T06:04:29.356Z,197
2019-05-07T06:05:29.281Z,196
2019-05-07T06:06:29.357Z,198
2019-05-07T06:07:29.293Z,217
2019-05-07T06:08:29.281Z,249
2019-05-07T06:09:29.361Z,277
2019-05-07T06:10:29.291Z,294
2019-05-07T06:11:29.284Z,310
2019-05-07T06:12:29.288Z,312
2019-05-07T06:13:29.371Z,314
2019-05-07T06:14:29.313Z,306
2019-05-07T06:15:29.383Z,306
2019-05-07T06:16:29.301Z,308
2019-05-07T06:17:29.302Z,320
2019-05-07T06:18:29.375Z,329
2019-05-07T06:19:29.378Z,331
2019-05-07T06:20:29.319Z,324
2019-05-07T06:21:29.388Z,306
2019-05-07T06:22:29.308Z,305
2019-05-07T06:23:29.242Z,298
2019-05-07T06:24:29.238Z,285
2019-05-07T06:25:29.313Z,256
2019-05-07T06:26:29.351Z,247
2019-05-07T06:27:29.332Z,256
2019-05-07T06:28:29.347Z,275
2019-05-07T06:29:29.329Z,291
2019-05-07T06:30:29.281Z,309
2019-05-07T06:31:29.261Z,322
2019-05-07T06:32:29.243Z,324
2019-05-07T06:33:29.343Z,336
2019-05-07T06:34:29.337Z,334
2019-05-07T06:35:29.308Z,320
2019-05-07T06:36:29.243Z,298
2019-05-07T06:37:29.305Z,273
2019-05-07T06:38:29.284Z,227
2019-05-07T06:39:29.367Z,193
2019-05-07T06:40:31.629Z,184
2019-05-07T06:41:29.381Z,168
2019-05-07T06:42:29.310Z,168
2019-05-07T06:43:29.208Z,172
2019-05-07T06:44:29.215Z,172
2019-05-07T06:45:29.254Z,170
2019-05-07T06:46:29.266Z,175
2019-05-07T06:47:29.320Z,183
2019-05-07T06:48:39.187Z,194
2019-05-07T06:49:29.277Z,209
2019-05-07T06:50:29.311Z,225
2019-05-07T06:51:29.340Z,288
2019-05-07T06:52:29.304Z,295
2019-05-07T06:53:29.387Z,298
2019-05-07T06:54:29.381Z,304
2019-05-07T06:55:29.279Z,297
2019-05-07T06:56:29.344Z,285
2019-05-07T06:57:29.329Z,271
2019-05-07T06:58:29.360Z,270
2019-05-07T06:59:32.566Z,277
2019-05-07T07:00:29.267Z,293
2019-05-07T07:01:29.288Z,294
2019-05-07T07:02:29.272Z,276
2019-05-07T07:03:29.335Z,285
2019-05-07T07:04:29.412Z,248
2019-05-07T07:05:29.411Z,241
2019-05-07T07:06:29.415Z,236
2019-05-07T07:07:34.038Z,228
2019-05-07T07:08:29.410Z,210
2019-05-07T07:09:29.413Z,209
2019-05-07T07:10:29.410Z,216
2019-05-07T07:11:31.794Z,211
2019-05-07T07:12:29.419Z,205
2019-05-07T07:13:29.347Z,199
2019-05-07T07:14:29.414Z,195
2019-05-07T07:15:29.418Z,187
2019-05-07T07:16:29.411Z,186
2019-05-07T07:17:29.421Z,187
2019-05-07T07:18:29.421Z,185
2019-05-07T07:19:29.418Z,184
2019-05-07T07:20:29.418Z,184
2019-05-07T07:21:29.424Z,181
2019-05-07T07:22:31.690Z,179
2019-05-07T07:23:29.432Z,180
2019-05-07T07:24:29.420Z,181
2019-05-07T07:25:29.421Z,184
2019-05-07T07:26:29.359Z,186
2019-05-07T07:27:29.423Z,187
2019-05-07T07:28:29.367Z,188
2019-05-07T07:29:29.362Z,189
2019-05-07T07:30:29.427Z,192
2019-05-07T07:31:31.700Z,190
2019-05-07T07:32:31.600Z,190
2019-05-07T07:33:29.431Z,193
2019-05-07T07:34:29.376Z,198
2019-05-07T07:35:29.440Z,208
2019-05-07T07:36:29.374Z,222
2019-05-07T07:37:29.438Z,235
2019-05-07T07:38:29.432Z,249
2019-05-07T07:39:29.394Z,257
2019-05-07T07:40:29.368Z,264
2019-05-07T07:41:29.439Z,269
2019-05-07T07:42:29.394Z,284
2019-05-07T07:43:29.435Z,305
2019-05-07T07:44:29.440Z,319
2019-05-07T07:45:29.378Z,330
2019-05-07T07:46:29.444Z,335
2019-05-07T07:47:29.374Z,331
2019-05-07T07:48:29.376Z,326
2019-05-07T07:49:29.454Z,325
2019-05-07T07:50:29.447Z,328
2019-05-07T07:51:40.555Z,330
2019-05-07T07:52:29.438Z,327
2019-05-07T07:53:32.304Z,308
2019-05-07T07:54:29.423Z,307
2019-05-07T07:55:29.370Z,305
2019-05-07T07:56:29.323Z,308
2019-05-07T07:57:29.429Z,294
2019-05-07T07:58:31.557Z,325
2019-05-07T07:59:29.405Z,365
2019-05-07T08:00:30.129Z,457
2019-05-07T08:01:29.395Z,862
2019-05-07T08:02:29.438Z,683
2019-05-07T08:03:29.384Z,852
2019-05-07T08:04:29.441Z,850
2019-05-07T08:05:29.409Z,868
2019-05-07T08:06:29.458Z,688
2019-05-07T08:07:29.340Z,531
2019-05-07T08:08:29.380Z,467
2019-05-07T08:09:29.430Z,482
2019-05-07T08:10:29.355Z,434
2019-05-07T08:11:29.435Z,696
2019-05-07T08:12:29.326Z,789
2019-05-07T08:13:29.464Z,772
2019-05-07T08:14:29.394Z,734
2019-05-07T08:15:29.390Z,790
2019-05-07T08:16:29.463Z,821
2019-05-07T08:17:29.390Z,826
2019-05-07T08:18:29.560Z,806
2019-05-07T08:19:29.397Z,823
2019-05-07T08:20:29.466Z,842
2019-05-07T08:21:29.482Z,872
2019-05-07T08:22:29.391Z,881
2019-05-07T08:23:31.810Z,893
2019-05-07T08:24:29.397Z,895
2019-05-07T08:25:29.470Z,900
2019-05-07T08:26:29.474Z,903
2019-05-07T08:27:29.458Z,915
2019-05-07T08:28:31.777Z,921
2019-05-07T08:29:29.469Z,916
2019-05-07T08:30:29.491Z,908
2019-05-07T08:31:29.474Z,910
2019-05-07T08:32:29.480Z,915
2019-05-07T08:33:29.474Z,927
2019-05-07T08:34:29.473Z,923
2019-05-07T08:35:29.491Z,902
2019-05-07T08:36:29.364Z,915
2019-05-07T08:37:29.473Z,877
2019-05-07T08:38:30.027Z,495
2019-05-07T08:39:29.420Z,625
2019-05-07T08:40:29.478Z,911
2019-05-07T08:41:31.765Z,955
2019-05-07T08:42:29.484Z,995
2019-05-07T08:43:29.429Z,1052
2019-05-07T08:44:29.481Z,1085
2019-05-07T08:45:29.613Z,1006
2019-05-07T08:46:29.644Z,852
2019-05-07T08:47:29.485Z,620
2019-05-07T08:48:29.496Z,473
2019-05-07T08:49:36.841Z,475
2019-05-07T08:50:29.487Z,470
2019-05-07T08:51:29.382Z,462
2019-05-07T08:52:29.489Z,432
2019-05-07T08:53:29.420Z,396
2019-05-07T08:54:29.416Z,357
2019-05-07T08:55:29.479Z,321
2019-05-07T08:56:29.380Z,305
2019-05-07T08:57:31.709Z,289
2019-05-07T08:58:31.604Z,277
2019-05-07T08:59:31.734Z,267
2019-05-07T09:00:29.482Z,255
2019-05-07T09:01:29.376Z,247
2019-05-07T09:02:29.395Z,241
2019-05-07T09:03:29.492Z,236
2019-05-07T09:04:29.501Z,237
2019-05-07T09:05:29.386Z,244
2019-05-07T09:06:29.431Z,243
2019-05-07T09:07:29.497Z,260
2019-05-07T09:08:29.495Z,268
2019-05-07T09:09:29.500Z,283
2019-05-07T09:10:29.507Z,302
2019-05-07T09:11:29.498Z,322
2019-05-07T09:12:31.705Z,340
2019-05-07T09:13:29.532Z,356
2019-05-07T09:14:31.519Z,371
2019-05-07T09:15:29.443Z,391
2019-05-07T09:16:31.822Z,422
2019-05-07T09:17:29.441Z,469
2019-05-07T09:18:29.439Z,534
2019-05-07T09:19:29.513Z,607
2019-05-07T09:20:29.438Z,927
2019-05-07T09:21:29.500Z,659
2019-05-07T09:22:29.438Z,685
2019-05-07T09:23:31.700Z,826
2019-05-07T09:24:29.498Z,759
2019-05-07T09:25:29.496Z,913
2019-05-07T09:26:29.431Z,937
2019-05-07T09:27:29.433Z,1159
2019-05-07T09:28:29.385Z,1113
2019-05-07T09:29:29.426Z,867
2019-05-07T09:30:29.430Z,670
2019-05-07T09:31:29.431Z,558
2019-05-07T09:32:29.508Z,463
2019-05-07T09:33:29.442Z,436
2019-05-07T09:34:29.453Z,429
2019-05-07T09:35:29.456Z,426
2019-05-07T09:36:29.520Z,442
2019-05-07T09:37:29.533Z,498
2019-05-07T09:38:29.528Z,548
2019-05-07T09:39:29.520Z,598
2019-05-07T09:40:29.484Z,903
2019-05-07T09:41:29.523Z,503
2019-05-07T09:42:29.546Z,467
2019-05-07T09:43:29.439Z,439
2019-05-07T09:44:29.512Z,426
2019-05-07T09:45:29.441Z,401
2019-05-07T09:46:29.517Z,400
2019-05-07T09:47:29.516Z,410
2019-05-07T09:48:29.453Z,431
2019-05-07T09:49:29.446Z,462
2019-05-07T09:50:29.458Z,768
2019-05-07T09:51:29.517Z,641
2019-05-07T09:52:29.433Z,609
2019-05-07T09:53:29.525Z,624
2019-05-07T09:54:29.476Z,542
2019-05-07T09:55:29.449Z,536
2019-05-07T09:56:29.445Z,559
2019-05-07T09:57:31.551Z,485
2019-05-07T09:58:36.614Z,415
2019-05-07T09:59:29.456Z,368
2019-05-07T10:00:29.448Z,343
2019-05-07T10:01:31.429Z,340
2019-05-07T10:02:29.546Z,352
2019-05-07T10:03:29.471Z,375
2019-05-07T10:04:29.471Z,402
2019-05-07T10:05:29.542Z,419
2019-05-07T10:06:29.473Z,420
2019-05-07T10:07:29.565Z,457
2019-05-07T10:08:31.697Z,444
2019-05-07T10:09:29.483Z,447
2019-05-07T10:10:29.476Z,455
2019-05-07T10:11:29.476Z,466
2019-05-07T10:12:29.479Z,476
2019-05-07T10:13:29.544Z,481
2019-05-07T10:14:29.542Z,478
2019-05-07T10:15:29.477Z,465
2019-05-07T10:16:29.545Z,458
2019-05-07T10:17:29.479Z,450
2019-05-07T10:18:29.482Z,427
2019-05-07T10:19:29.487Z,428
2019-05-07T10:20:29.573Z,451
2019-05-07T10:21:29.478Z,465
2019-05-07T10:22:31.979Z,497
2019-05-07T10:23:29.482Z,594
2019-05-07T10:24:29.442Z,1295
2019-05-07T10:25:29.444Z,1271
2019-05-07T10:26:29.429Z,507
2019-05-07T10:27:29.447Z,502
2019-05-07T10:28:29.540Z,869
2019-05-07T10:29:29.544Z,651
2019-05-07T10:30:29.519Z,631
2019-05-07T10:31:31.868Z,777
2019-05-07T10:32:29.450Z,1212
2019-05-07T10:33:29.471Z,1188
2019-05-07T10:34:29.550Z,1120
2019-05-07T10:35:31.663Z,1165
2019-05-07T10:36:29.554Z,461
2019-05-07T10:37:31.663Z,487
2019-05-07T10:38:29.561Z,1082
2019-05-07T10:39:29.531Z,1074
2019-05-07T10:40:29.565Z,1262
2019-05-07T10:41:31.724Z,1244
2019-05-07T10:42:29.496Z,1273
2019-05-07T10:43:29.571Z,1205
2019-05-07T10:44:29.469Z,1264
2019-05-07T10:46:29.516Z,588
2019-05-07T10:47:29.558Z,666
2019-05-07T10:48:29.566Z,869
2019-05-07T10:49:31.672Z,913
2019-05-07T10:50:38.026Z,1120
2019-05-07T10:51:29.474Z,471
2019-05-07T10:52:31.439Z,487
2019-05-07T10:53:29.494Z,1209
2019-05-07T10:54:29.577Z,1207
2019-05-07T10:55:29.506Z,1077
2019-05-07T10:56:29.509Z,1126
2019-05-07T10:57:29.579Z,1172
2019-05-07T10:58:29.518Z,1166
2019-05-07T10:59:29.577Z,1158
2019-05-07T11:00:29.511Z,1143
2019-05-07T11:01:29.507Z,1148
2019-05-07T11:02:29.582Z,1109
2019-05-07T11:03:29.583Z,1242
2019-05-07T11:04:40.106Z,1257
2019-05-07T11:05:29.519Z,971
2019-05-07T11:06:29.516Z,820
2019-05-07T11:07:29.584Z,1062
2019-05-07T11:08:29.565Z,485
2019-05-07T11:09:29.516Z,528
2019-05-07T11:10:29.586Z,1206
2019-05-07T11:11:31.762Z,973
2019-05-07T11:12:31.805Z,962
2019-05-07T11:13:29.522Z,1128
2019-05-07T11:14:29.469Z,1297
2019-05-07T11:15:29.456Z,550
2019-05-07T11:16:29.451Z,559
2019-05-07T11:17:29.535Z,823
2019-05-07T11:18:29.510Z,682
2019-05-07T11:19:29.474Z,657
2019-05-07T11:20:30.019Z,531
2019-05-07T11:21:29.546Z,554
2019-05-07T11:22:29.456Z,519
2019-05-07T11:23:29.509Z,506
2019-05-07T11:24:29.598Z,524
2019-05-07T11:25:29.603Z,540
2019-05-07T11:26:29.606Z,610
2019-05-07T11:27:29.597Z,1350
2019-05-07T11:28:29.535Z,1409
2019-05-07T11:29:29.605Z,1268
2019-05-07T11:30:29.608Z,1329
2019-05-07T11:31:29.552Z,1278
2019-05-07T11:32:29.604Z,1265
2019-05-07T11:33:29.602Z,830
2019-05-07T11:34:29.642Z,989
2019-05-07T11:35:31.701Z,356
2019-05-07T11:36:29.533Z,298
2019-05-07T11:37:29.577Z,297
2019-05-07T11:38:29.607Z,399
2019-05-07T11:39:29.617Z,356
2019-05-07T11:40:32.235Z,337
2019-05-07T11:41:29.541Z,364
2019-05-07T11:42:29.618Z,655
2019-05-07T11:43:29.611Z,373
2019-05-07T11:44:29.564Z,400
2019-05-07T11:45:29.534Z,437
2019-05-07T11:46:29.602Z,417
2019-05-07T11:47:31.726Z,391
2019-05-07T11:48:29.542Z,378
2019-05-07T11:49:29.538Z,369
2019-05-07T11:50:29.516Z,356
2019-05-07T11:51:29.530Z,354
2019-05-07T11:52:32.321Z,357
2019-05-07T11:53:29.507Z,366
2019-05-07T11:54:31.679Z,368
2019-05-07T11:55:29.575Z,364
2019-05-07T11:56:29.552Z,366
2019-05-07T11:57:29.535Z,378
2019-05-07T11:58:29.553Z,422
2019-05-07T11:59:29.480Z,1323
2019-05-07T12:00:29.525Z,502
2019-05-07T12:01:43.049Z,484
2019-05-07T12:02:31.917Z,1082
2019-05-07T12:03:29.503Z,453
2019-05-07T12:04:31.872Z,455
2019-05-07T12:05:29.618Z,479
2019-05-07T12:06:29.543Z,521
2019-05-07T12:07:29.619Z,1384
2019-05-07T12:08:39.363Z,1384
2019-05-07T12:09:29.553Z,1401
2019-05-07T12:10:29.620Z,1285
2019-05-07T12:11:29.544Z,562
2019-05-07T12:12:29.618Z,500
2019-05-07T12:13:29.624Z,464
2019-05-07T12:14:32.575Z,431
2019-05-07T12:15:29.563Z,400
2019-05-07T12:16:31.837Z,386
2019-05-07T12:17:31.556Z,386
2019-05-07T12:18:31.744Z,395
2019-05-07T12:19:29.574Z,396
2019-05-07T12:20:29.586Z,382
2019-05-07T12:21:29.567Z,393
2019-05-07T12:22:29.578Z,423
2019-05-07T12:23:29.642Z,974
2019-05-07T12:24:29.658Z,570
2019-05-07T12:25:31.828Z,681
2019-05-07T12:26:29.557Z,724
2019-05-07T12:27:29.631Z,596
2019-05-07T12:28:29.558Z,593
2019-05-07T12:29:29.592Z,582
2019-05-07T12:30:29.632Z,618
2019-05-07T12:31:29.641Z,671
2019-05-07T12:32:29.638Z,658
2019-05-07T12:33:29.577Z,772
2019-05-07T12:34:31.762Z,834
2019-05-07T12:35:29.576Z,674
2019-05-07T12:36:31.891Z,626
2019-05-07T12:37:29.581Z,738
2019-05-07T12:38:29.581Z,576
2019-05-07T12:39:31.696Z,548
2019-05-07T12:40:29.660Z,520
2019-05-07T12:41:29.675Z,499
2019-05-07T12:42:29.668Z,473
2019-05-07T12:43:31.771Z,452
2019-05-07T12:44:31.868Z,435
2019-05-07T12:45:29.571Z,419
2019-05-07T12:46:29.659Z,412
2019-05-07T12:47:29.583Z,402
2019-05-07T12:48:29.589Z,393
2019-05-07T12:49:29.654Z,385
2019-05-07T12:50:29.648Z,381
2019-05-07T12:51:34.477Z,372
2019-05-07T12:52:29.582Z,368
2019-05-07T12:53:31.437Z,361
2019-05-07T12:54:29.578Z,351
2019-05-07T12:55:29.645Z,341
2019-05-07T12:56:29.567Z,321
2019-05-07T12:57:29.655Z,326
2019-05-07T12:58:29.659Z,318
2019-05-07T12:59:29.657Z,315
2019-05-07T13:00:29.591Z,308
2019-05-07T13:01:29.570Z,299
2019-05-07T13:02:38.119Z,282
2019-05-07T13:03:29.593Z,277
2019-05-07T13:04:29.680Z,275
2019-05-07T13:05:29.607Z,278
2019-05-07T13:06:29.601Z,278
2019-05-07T13:07:29.668Z,276
2019-05-07T13:08:29.636Z,275
2019-05-07T13:09:29.604Z,273
2019-05-07T13:10:29.674Z,267
2019-05-07T13:11:29.676Z,270
2019-05-07T13:12:29.611Z,270
2019-05-07T13:13:31.840Z,273
2019-05-07T13:14:29.639Z,283
2019-05-07T13:15:29.668Z,294
2019-05-07T13:16:29.592Z,311
2019-05-07T13:17:29.640Z,327
2019-05-07T13:18:29.580Z,346
2019-05-07T13:19:29.676Z,366
2019-05-07T13:20:31.908Z,389
2019-05-07T13:21:31.762Z,411
2019-05-07T13:22:29.673Z,469
2019-05-07T13:23:31.616Z,616
2019-05-07T13:24:31.576Z,886
2019-05-07T13:25:29.643Z,733
2019-05-07T13:26:29.599Z,816
2019-05-07T13:27:29.546Z,1219
2019-05-07T13:28:29.587Z,756
2019-05-07T13:29:29.574Z,684
2019-05-07T13:30:29.555Z,697
2019-05-07T13:31:29.547Z,713
2019-05-07T13:32:29.638Z,681
2019-05-07T13:33:32.019Z,1029
2019-05-07T13:34:33.757Z,919
2019-05-07T13:35:29.612Z,1072
2019-05-07T13:36:29.612Z,1114
2019-05-07T13:37:29.649Z,965
2019-05-07T13:38:29.683Z,1055
2019-05-07T13:39:29.693Z,1108
2019-05-07T13:40:31.554Z,1136
2019-05-07T13:41:29.693Z,1110
2019-05-07T13:42:31.806Z,342
2019-05-07T13:43:29.613Z,905
2019-05-07T13:44:31.777Z,271
2019-05-07T13:45:31.637Z,257
2019-05-07T13:46:29.690Z,235
2019-05-07T13:47:29.614Z,236
2019-05-07T13:48:31.595Z,243
2019-05-07T13:49:29.601Z,245
2019-05-07T13:50:29.615Z,234
2019-05-07T13:51:31.603Z,223
2019-05-07T13:52:29.652Z,211
2019-05-07T13:53:29.695Z,206
2019-05-07T13:54:29.621Z,201
2019-05-07T13:55:29.587Z,196
2019-05-07T13:56:29.537Z,192
2019-05-07T13:57:29.573Z,194
2019-05-07T13:58:29.712Z,207
2019-05-07T13:59:31.677Z,220
2019-05-07T14:00:29.623Z,236
2019-05-07T14:01:29.761Z,246
2019-05-07T14:02:31.641Z,253
2019-05-07T14:03:29.630Z,256
2019-05-07T14:04:29.669Z,273
2019-05-07T14:05:29.699Z,292